Time;durP1;ratioP1;P1;durP2;ratioP2;P2;SDS_P1;SDS_P2;PMS_P1;PMS_P2;Temp;Humidity;BMP_temperature;BMP_pressure;BME280_temperature;BME280_humidity;BME280_pressure;Samples;Min_cycle;Max_cycle;Signal;HPM_P1;HPM_P2
2022/06/15 00:00:44;;;;;;;;;;;;;;;15.87;52.34;100567.70;1796957;80;20198;-53
2022/06/15 00:03:51;;;;;;;;;;;;;;;15.81;52.44;100565.77;1808515;76;20295;-53
2022/06/15 00:06:56;;;;;;;;;;;;;;;15.79;52.54;100562.91;1834720;78;20183;-54
2022/06/15 00:10:02;;;;;;;;;;;;;;;15.75;52.61;100563.83;1833976;78;20183;-54
2022/06/15 00:13:07;;;;;;;;;;;;;;;15.71;52.64;100560.31;1833907;78;20539;-54
2022/06/15 00:16:12;;;;;;;;;;;;;;;15.66;52.70;100566.45;1834159;78;20176;-54
2022/06/15 00:19:18;;;;;;;;;;;;;;;15.61;52.70;100574.48;1834033;78;20179;-54
2022/06/15 00:22:22;;;;;;;;;;;;;;;15.54;52.71;100569.99;1833673;78;20207;-54
2022/06/15 00:25:30;;;;;;;;;;;;;;;15.45;52.77;100575.32;1834584;78;20215;-54
2022/06/15 00:28:33;;;;;;;;;;;;;;;15.37;52.88;100577.69;1834677;78;20175;-54
2022/06/15 00:31:37;;;;;;;;;;;;;;;15.32;52.98;100580.74;1834616;78;20239;-54
2022/06/15 00:34:43;;;;;;;;;;;;;;;15.25;53.03;100577.07;1834445;78;20180;-54
2022/06/15 00:37:47;;;;;;;;;;;;;;;15.18;53.10;100587.19;1834414;78;20187;-54
2022/06/15 00:40:45;;;;;;;;;;;;;;;15.11;53.20;100580.78;1834607;78;20539;-54
2022/06/15 00:43:53;;;;;;;;;;;;;;;15.09;53.30;100589.78;1834603;78;20191;-55
2022/06/15 00:47:14;;;;;;;;;;;;;;;15.06;53.39;100588.80;1834372;78;20242;-54
2022/06/15 00:50:21;;;;;;;;;;;;;;;15.03;53.42;100591.45;1834475;78;20255;-54
2022/06/15 00:53:26;;;;;;;;;;;;;;;15.01;53.47;100587.48;1833679;78;20187;-54
2022/06/15 00:56:31;;;;;;;;;;;;;;;15.01;53.55;100588.03;1834085;78;20519;-54
2022/06/15 00:59:42;;;;;;;;;;;;;;;14.99;53.60;100592.87;1812119;78;20196;-54
2022/06/15 01:02:48;;;;;;;;;;;;;;;14.96;53.60;100586.39;1827151;78;20191;-54
2022/06/15 01:06:01;;;;;;;;;;;;;;;14.92;53.66;100596.95;1844540;77;20180;-55
2022/06/15 01:09:17;;;;;;;;;;;;;;;14.89;53.75;100590.46;1819210;79;20197;-54
2022/06/15 01:12:28;;;;;;;;;;;;;;;14.90;53.85;100595.45;1841193;78;20234;-54
2022/06/15 01:15:41;;;;;;;;;;;;;;;14.88;53.89;100587.91;1841259;77;20195;-54
2022/06/15 01:19:25;;;;;;;;;;;;;;;14.86;53.95;100589.48;1843752;77;20183;-53
2022/06/15 01:22:39;;;;;;;;;;;;;;;14.82;53.93;100592.84;1774563;79;20345;-54
2022/06/15 01:25:52;;;;;;;;;;;;;;;14.75;54.00;100584.50;1764084;80;20172;-53
2022/06/15 01:29:01;;;;;;;;;;;;;;;14.71;53.98;100593.37;1800779;79;20186;-54
2022/06/15 01:32:20;;;;;;;;;;;;;;;14.62;53.98;100592.64;1779539;79;20201;-54
2022/06/15 01:35:36;;;;;;;;;;;;;;;14.60;54.05;100589.77;1827616;78;20579;-54
2022/06/15 01:38:55;;;;;;;;;;;;;;;14.55;54.12;100587.61;1831313;78;20231;-54
2022/06/15 01:42:23;;;;;;;;;;;;;;;14.53;54.18;100603.47;1834433;78;20231;-54
2022/06/15 01:45:32;;;;;;;;;;;;;;;14.50;54.24;100598.35;1834559;78;20207;-54
2022/06/15 01:48:40;;;;;;;;;;;;;;;14.48;54.34;100600.44;1828594;78;20239;-54
2022/06/15 01:51:48;;;;;;;;;;;;;;;14.49;54.46;100606.81;1834707;78;20267;-54
2022/06/15 01:55:07;;;;;;;;;;;;;;;14.49;54.52;100609.57;1834925;78;20180;-54
2022/06/15 01:58:00;;;;;;;;;;;;;;;14.49;54.57;100614.53;1816241;78;20191;-54
2022/06/15 02:01:11;;;;;;;;;;;;;;;14.48;54.54;100609.22;1834416;78;20219;-54
2022/06/15 02:04:25;;;;;;;;;;;;;;;14.47;54.58;100620.78;1804555;78;20562;-54
2022/06/15 02:07:36;;;;;;;;;;;;;;;14.47;54.58;100612.52;1785252;79;20251;-54
2022/06/15 02:11:00;;;;;;;;;;;;;;;14.48;54.64;100619.73;1829041;78;20239;-54
2022/06/15 02:14:09;;;;;;;;;;;;;;;14.46;54.68;100616.85;1825228;78;20191;-54
2022/06/15 02:17:16;;;;;;;;;;;;;;;14.43;54.62;100624.13;1829574;78;20199;-54
2022/06/15 02:20:28;;;;;;;;;;;;;;;14.39;54.64;100626.41;1829466;78;20600;-54
2022/06/15 02:23:33;;;;;;;;;;;;;;;14.36;54.66;100624.05;1829526;78;20531;-54
2022/06/15 02:26:40;;;;;;;;;;;;;;;14.34;54.70;100622.52;1818255;78;20180;-54
2022/06/15 02:29:45;;;;;;;;;;;;;;;14.33;54.77;100623.06;1827109;78;20223;-54
2022/06/15 02:32:51;;;;;;;;;;;;;;;14.35;54.77;100622.88;1844436;78;20198;-56
2022/06/15 02:35:56;;;;;;;;;;;;;;;14.40;54.85;100628.62;1844512;78;20179;-55
2022/06/15 02:39:01;;;;;;;;;;;;;;;14.46;54.90;100635.59;1844033;78;20559;-54
2022/06/15 02:42:08;;;;;;;;;;;;;;;14.51;54.95;100625.36;1833459;78;20525;-55
2022/06/15 02:45:28;;;;;;;;;;;;;;;14.56;54.93;100629.77;1831926;78;20528;-55
2022/06/15 02:48:33;;;;;;;;;;;;;;;14.61;55.00;100628.66;1830205;78;20278;-55
2022/06/15 02:51:55;;;;;;;;;;;;;;;14.67;54.98;100635.62;1842684;78;20195;-55
2022/06/15 02:55:01;;;;;;;;;;;;;;;14.70;54.96;100632.47;1844240;77;20516;-55
2022/06/15 02:58:12;;;;;;;;;;;;;;;14.77;55.04;100642.18;1820722;78;20234;-55
2022/06/15 03:01:16;;;;;;;;;;;;;;;14.82;55.08;100639.70;1844435;77;20519;-54
2022/06/15 03:04:21;;;;;;;;;;;;;;;14.88;55.12;100638.90;1844209;77;20257;-55
2022/06/15 03:07:28;;;;;;;;;;;;;;;14.97;55.17;100635.81;1848679;77;20203;-55
2022/06/15 03:10:35;;;;;;;;;;;;;;;15.07;55.20;100642.37;1831746;78;20183;-55
2022/06/15 03:13:43;;;;;;;;;;;;;;;15.16;55.24;100645.30;1855918;77;20190;-55
2022/06/15 03:16:49;;;;;;;;;;;;;;;15.27;55.27;100642.00;1841271;78;20191;-55
2022/06/15 03:19:57;;;;;;;;;;;;;;;15.39;55.24;100646.48;1856021;77;20431;-55
2022/06/15 03:23:06;;;;;;;;;;;;;;;15.48;55.25;100650.28;1841017;78;20242;-57
2022/06/15 03:26:12;;;;;;;;;;;;;;;15.56;55.21;100652.89;1856013;77;20507;-56
2022/06/15 03:29:17;;;;;;;;;;;;;;;15.62;55.18;100646.55;1842693;78;20206;-56
2022/06/15 03:32:25;;;;;;;;;;;;;;;15.71;55.15;100652.27;1847423;77;20175;-56
2022/06/15 03:35:34;;;;;;;;;;;;;;;15.77;55.10;100647.30;1847394;78;20250;-55
2022/06/15 03:38:38;;;;;;;;;;;;;;;15.83;55.08;100661.67;1847289;78;20215;-55
2022/06/15 03:41:46;;;;;;;;;;;;;;;15.90;55.05;100660.33;1847430;78;20582;-56
2022/06/15 03:44:53;;;;;;;;;;;;;;;15.97;55.05;100661.20;1847384;78;20203;-55
2022/06/15 03:47:59;;;;;;;;;;;;;;;16.06;55.00;100663.59;1819161;79;20220;-56
2022/06/15 03:51:07;;;;;;;;;;;;;;;16.12;54.96;100662.80;1855441;77;20258;-55
2022/06/15 03:54:15;;;;;;;;;;;;;;;16.22;54.94;100655.52;1823017;78;20598;-55
2022/06/15 03:57:24;;;;;;;;;;;;;;;16.32;54.92;100660.11;1832039;78;20207;-55
2022/06/15 04:00:33;;;;;;;;;;;;;;;16.40;54.91;100660.80;1831185;78;20540;-55
2022/06/15 04:03:40;;;;;;;;;;;;;;;16.49;54.84;100655.13;1833833;78;20198;-56
2022/06/15 04:06:49;;;;;;;;;;;;;;;16.59;54.80;100657.80;1857446;77;20217;-55
2022/06/15 04:09:55;;;;;;;;;;;;;;;16.69;54.73;100660.17;1847275;78;20198;-56
2022/06/15 04:13:04;;;;;;;;;;;;;;;16.78;54.66;100654.76;1853288;77;20218;-56
2022/06/15 04:16:11;;;;;;;;;;;;;;;16.87;54.59;100662.65;1833076;78;20536;-56
2022/06/15 04:19:19;;;;;;;;;;;;;;;16.96;54.54;100662.80;1804045;79;20189;-54
2022/06/15 04:22:24;;;;;;;;;;;;;;;17.06;54.43;100655.47;1853220;77;20542;-56
2022/06/15 04:25:31;;;;;;;;;;;;;;;17.16;54.39;100665.56;1823121;78;20574;-56
2022/06/15 04:28:37;;;;;;;;;;;;;;;17.26;54.33;100655.80;1836449;78;20532;-56
2022/06/15 04:31:44;;;;;;;;;;;;;;;17.37;54.25;100666.23;1832803;78;20252;-57
2022/06/15 04:34:51;;;;;;;;;;;;;;;17.46;54.15;100665.50;1832717;78;20230;-56
2022/06/15 04:37:58;;;;;;;;;;;;;;;17.55;54.05;100672.55;1832563;78;20295;-56
2022/06/15 04:41:12;;;;;;;;;;;;;;;17.64;54.01;100672.64;1825291;78;20223;-56
2022/06/15 04:44:20;;;;;;;;;;;;;;;17.72;53.87;100677.44;1828115;78;20579;-56
2022/06/15 04:47:27;;;;;;;;;;;;;;;17.81;53.76;100679.43;1832795;78;20321;-55
2022/06/15 04:50:34;;;;;;;;;;;;;;;17.87;53.63;100680.80;1832922;78;20259;-56
2022/06/15 04:53:42;;;;;;;;;;;;;;;17.95;53.54;100680.27;1804824;78;20254;-55
2022/06/15 04:56:42;;;;;;;;;;;;;;;18.01;53.44;100678.88;1807144;78;20543;-55
2022/06/15 04:59:35;;;;;;;;;;;;;;;18.09;53.32;100682.80;1821966;78;20286;-55
2022/06/15 05:02:22;;;;;;;;;;;;;;;18.14;53.18;100676.05;1826311;78;20577;-54
2022/06/15 05:05:18;;;;;;;;;;;;;;;18.21;53.13;100679.66;1804621;77;20210;-53
2022/06/15 05:08:27;;;;;;;;;;;;;;;18.30;53.05;100681.11;1810896;78;20317;-52
2022/06/15 05:11:33;;;;;;;;;;;;;;;18.36;52.91;100685.78;1804471;78;20552;-51
2022/06/15 05:14:42;;;;;;;;;;;;;;;18.42;52.78;100689.64;1793420;79;20213;-51
2022/06/15 05:17:51;;;;;;;;;;;;;;;18.50;52.74;100694.42;1805269;79;20205;-53
2022/06/15 05:20:57;;;;;;;;;;;;;;;18.56;52.54;100693.53;1800457;79;20201;-52
2022/06/15 05:24:06;;;;;;;;;;;;;;;18.61;52.39;100700.66;1804475;79;20621;-52
2022/06/15 05:27:14;;;;;;;;;;;;;;;18.65;52.27;100708.84;1800713;79;20209;-54
2022/06/15 05:30:19;;;;;;;;;;;;;;;18.69;52.16;100713.42;1804011;78;20644;-53
2022/06/15 05:33:24;;;;;;;;;;;;;;;18.73;52.05;100703.57;1805086;78;20210;-54
2022/06/15 05:36:35;;;;;;;;;;;;;;;18.80;51.94;100708.04;1841494;77;20202;-54
2022/06/15 05:39:40;;;;;;;;;;;;;;;18.84;51.85;100702.34;1810406;77;20209;-54
2022/06/15 05:42:49;;;;;;;;;;;;;;;18.93;51.81;100714.05;1805300;79;20205;-54
2022/06/15 05:45:59;;;;;;;;;;;;;;;19.00;51.69;100709.30;1784581;79;20572;-54
2022/06/15 05:49:07;;;;;;;;;;;;;;;19.04;51.58;100707.23;1788339;78;20228;-57
2022/06/15 05:52:14;;;;;;;;;;;;;;;19.11;51.52;100707.20;1805635;79;20216;-53
2022/06/15 05:55:22;;;;;;;;;;;;;;;19.20;51.47;100715.04;1812608;79;20675;-54
2022/06/15 05:58:28;;;;;;;;;;;;;;;19.27;51.33;100715.86;1817137;78;20633;-55
2022/06/15 06:01:39;;;;;;;;;;;;;;;19.30;51.18;100714.05;1816110;78;20279;-54
2022/06/15 06:04:45;;;;;;;;;;;;;;;19.34;51.11;100721.40;1815990;78;20656;-54
2022/06/15 06:07:54;;;;;;;;;;;;;;;19.40;51.00;100715.47;1802865;78;20206;-54
2022/06/15 06:11:01;;;;;;;;;;;;;;;19.44;50.89;100717.56;1807100;78;20204;-55
2022/06/15 06:14:08;;;;;;;;;;;;;;;19.51;50.84;100714.74;1809841;79;20553;-54
2022/06/15 06:17:16;;;;;;;;;;;;;;;19.58;50.73;100717.80;1810128;79;20201;-54
2022/06/15 06:20:30;;;;;;;;;;;;;;;19.63;50.62;100711.00;1809913;79;20529;-55
2022/06/15 06:23:36;;;;;;;;;;;;;;;19.63;50.47;100711.56;1809732;79;20553;-54
2022/06/15 06:26:45;;;;;;;;;;;;;;;19.63;50.26;100707.40;1809885;79;20197;-55
2022/06/15 06:29:53;;;;;;;;;;;;;;;19.62;50.17;100709.84;1798821;78;20560;-53
2022/06/15 06:32:59;;;;;;;;;;;;;;;19.68;50.15;100708.96;1810351;79;20587;-53
2022/06/15 06:36:04;;;;;;;;;;;;;;;19.79;50.07;100708.22;1800775;79;20226;-54
2022/06/15 06:39:11;;;;;;;;;;;;;;;19.85;49.89;100703.13;1824505;77;20779;-53
2022/06/15 06:42:23;;;;;;;;;;;;;;;19.91;49.83;100700.83;1833816;78;20209;-54
2022/06/15 06:45:35;;;;;;;;;;;;;;;20.01;49.70;100708.94;1770216;80;20565;-53
2022/06/15 06:48:40;;;;;;;;;;;;;;;20.07;49.53;100710.83;1769858;81;20243;-54
2022/06/15 06:51:45;;;;;;;;;;;;;;;20.08;49.37;100710.27;1770704;80;20587;-52
2022/06/15 06:54:50;;;;;;;;;;;;;;;20.07;49.26;100717.77;1767091;80;20576;-55
2022/06/15 06:58:01;;;;;;;;;;;;;;;20.12;49.22;100709.57;1854681;77;20454;-55
2022/06/15 07:01:04;;;;;;;;;;;;;;;20.18;49.14;100709.24;1823140;78;20218;-54
2022/06/15 07:04:09;;;;;;;;;;;;;;;20.28;49.09;100713.73;1839341;77;20234;-55
2022/06/15 07:07:14;;;;;;;;;;;;;;;20.31;48.90;100716.05;1829355;77;20210;-54
2022/06/15 07:10:20;;;;;;;;;;;;;;;20.35;48.81;100711.72;1843831;78;20606;-55
2022/06/15 07:13:26;;;;;;;;;;;;;;;20.45;48.72;100717.07;1767588;80;20655;-55
2022/06/15 07:16:31;;;;;;;;;;;;;;;20.50;48.56;100708.84;1820106;78;20226;-56
2022/06/15 07:19:40;;;;;;;;;;;;;;;20.57;48.49;100718.51;1795295;79;20300;-54
2022/06/15 07:22:45;;;;;;;;;;;;;;;20.64;48.41;100714.55;1767813;79;20289;-54
2022/06/15 07:25:51;;;;;;;;;;;;;;;20.74;48.32;100716.79;1762907;81;20230;-56
2022/06/15 07:28:57;;;;;;;;;;;;;;;20.83;48.11;100709.28;1774700;81;20223;-55
2022/06/15 07:32:02;;;;;;;;;;;;;;;20.90;47.97;100706.41;1793917;78;20195;-54
2022/06/15 07:35:08;;;;;;;;;;;;;;;20.98;47.82;100704.72;1813911;78;20203;-55
2022/06/15 07:38:15;;;;;;;;;;;;;;;21.05;47.64;100706.89;1800388;78;20216;-56
2022/06/15 07:41:21;;;;;;;;;;;;;;;21.15;47.53;100707.70;1801492;79;20217;-56
2022/06/15 07:44:26;;;;;;;;;;;;;;;21.24;47.45;100721.06;1779830;78;20244;-55
2022/06/15 07:50:56;;;;;;;;;;;;;;;21.23;47.10;100711.55;1804338;78;20542;-55
2022/06/15 07:54:02;;;;;;;;;;;;;;;21.26;46.98;100709.69;1832061;78;20207;-54
2022/06/15 07:57:07;;;;;;;;;;;;;;;21.26;46.87;100704.11;1830414;78;20848;-54
2022/06/15 08:00:14;;;;;;;;;;;;;;;21.31;46.79;100702.30;1830637;78;20254;-55
2022/06/15 08:03:21;;;;;;;;;;;;;;;21.40;46.65;100708.39;1832116;78;20215;-55
2022/06/15 08:06:26;;;;;;;;;;;;;;;21.41;46.44;100702.58;1786153;79;20206;-54
2022/06/15 08:09:33;;;;;;;;;;;;;;;21.47;46.37;100711.36;1812187;78;20211;-55
2022/06/15 08:12:40;;;;;;;;;;;;;;;21.56;46.23;100703.52;1783985;78;20267;-54
2022/06/15 08:15:45;;;;;;;;;;;;;;;21.64;46.12;100692.89;1805053;79;20209;-55
2022/06/15 08:18:54;;;;;;;;;;;;;;;21.75;46.05;100704.63;1801242;79;20201;-54
2022/06/15 08:22:12;;;;;;;;;;;;;;;21.86;45.91;100701.00;1800307;78;20318;-52
2022/06/15 08:25:27;;;;;;;;;;;;;;;21.94;45.78;100696.45;1819707;79;20548;-54
2022/06/15 08:28:34;;;;;;;;;;;;;;;22.02;45.62;100704.43;1820171;78;20210;-54
2022/06/15 08:31:40;;;;;;;;;;;;;;;21.98;45.40;100699.05;1799085;78;20229;-55
2022/06/15 08:34:49;;;;;;;;;;;;;;;22.00;45.33;100691.30;1806493;79;20401;-54
2022/06/15 08:37:57;;;;;;;;;;;;;;;22.08;45.20;100700.70;1800248;79;20209;-55
2022/06/15 08:41:09;;;;;;;;;;;;;;;22.10;45.08;100699.88;1783858;78;20842;-55
2022/06/15 08:44:31;;;;;;;;;;;;;;;22.13;44.92;100706.94;1802751;79;20217;-56
2022/06/15 08:48:03;;;;;;;;;;;;;;;22.23;44.73;100693.77;1774544;79;20216;-54
2022/06/15 08:51:21;;;;;;;;;;;;;;;22.39;44.59;100690.23;1806366;78;20255;-55
2022/06/15 08:54:34;;;;;;;;;;;;;;;22.56;44.44;100692.59;1774980;79;20282;-56
2022/06/15 08:58:02;;;;;;;;;;;;;;;22.75;44.26;100691.33;1800711;79;20225;-57
2022/06/15 09:01:11;;;;;;;;;;;;;;;22.91;44.13;100689.15;1803849;79;20206;-57
2022/06/15 09:04:22;;;;;;;;;;;;;;;23.09;43.88;100690.33;1800914;79;20526;-57
2022/06/15 09:07:58;;;;;;;;;;;;;;;23.18;43.75;100702.81;1810031;78;20207;-58
2022/06/15 09:11:08;;;;;;;;;;;;;;;23.35;43.61;100685.02;1805721;78;20236;-58
2022/06/15 09:14:19;;;;;;;;;;;;;;;23.53;43.30;100681.14;1752417;81;20216;-58
2022/06/15 09:17:27;;;;;;;;;;;;;;;23.70;43.12;100694.58;1761728;81;20607;-57
2022/06/15 09:20:53;;;;;;;;;;;;;;;23.70;42.86;100692.31;1761861;81;20565;-58
2022/06/15 09:24:05;;;;;;;;;;;;;;;23.78;42.88;100684.36;1762005;81;20216;-58
2022/06/15 09:27:16;;;;;;;;;;;;;;;23.93;42.71;100677.60;1762710;81;20216;-57
2022/06/15 09:30:27;;;;;;;;;;;;;;;23.93;42.46;100694.37;1771414;81;20599;-59
2022/06/15 09:33:35;;;;;;;;;;;;;;;23.82;42.33;100688.33;1792517;79;20445;-59
2022/06/15 09:36:56;;;;;;;;;;;;;;;23.72;42.15;100690.12;1813807;78;20213;-59
2022/06/15 09:40:00;;;;;;;;;;;;;;;23.74;42.17;100687.93;1786127;79;20242;-58
2022/06/15 09:43:23;;;;;;;;;;;;;;;23.86;42.06;100688.67;1774114;79;20211;-58
2022/06/15 09:46:50;;;;;;;;;;;;;;;24.02;41.89;100690.65;1767998;81;20589;-57
2022/06/15 09:50:02;;;;;;;;;;;;;;;24.19;41.75;100683.92;1775797;79;20243;-57
2022/06/15 09:53:36;;;;;;;;;;;;;;;24.35;41.58;100683.05;1777263;81;20215;-57
2022/06/15 09:56:40;;;;;;;;;;;;;;;24.35;41.38;100684.98;1766517;81;20600;-58
2022/06/15 09:59:49;;;;;;;;;;;;;;;24.36;41.26;100689.47;1760478;81;20216;-57
2022/06/15 10:02:59;;;;;;;;;;;;;;;24.28;41.02;100676.77;1766360;81;20255;-59
2022/06/15 10:06:08;;;;;;;;;;;;;;;24.21;41.03;100690.66;1765317;79;20213;-58
2022/06/15 10:09:16;;;;;;;;;;;;;;;24.14;40.88;100689.98;1772645;80;20592;-57
2022/06/15 10:13:02;;;;;;;;;;;;;;;23.99;40.76;100686.39;1766610;81;20562;-60
2022/06/15 10:16:08;;;;;;;;;;;;;;;23.89;40.73;100698.81;1767111;78;20194;-60
2022/06/15 10:19:16;;;;;;;;;;;;;;;23.95;40.66;100700.58;1798246;78;20296;-57
2022/06/15 10:22:27;;;;;;;;;;;;;;;23.89;40.54;100687.63;1779354;80;20254;-59
2022/06/15 10:25:33;;;;;;;;;;;;;;;23.94;40.46;100680.72;1779339;80;20615;-58
2022/06/15 10:28:43;;;;;;;;;;;;;;;24.16;40.61;100681.64;1779436;80;20607;-58
2022/06/15 10:31:51;;;;;;;;;;;;;;;24.40;40.50;100682.27;1804120;79;20201;-59
2022/06/15 10:35:04;;;;;;;;;;;;;;;24.53;40.33;100677.11;1811560;79;20587;-59
2022/06/15 10:38:08;;;;;;;;;;;;;;;24.65;40.24;100676.45;1809728;78;20603;-56
2022/06/15 10:44:39;;;;;;;;;;;;;;;25.02;39.98;100659.27;1784615;79;20193;-58
2022/06/15 10:47:53;;;;;;;;;;;;;;;25.02;39.69;100657.04;1770804;80;20277;-59
2022/06/15 10:51:11;;;;;;;;;;;;;;;25.07;39.64;100666.05;1774803;81;20200;-59
2022/06/15 11:04:57;;;;;;;;;;;;;;;25.47;39.14;100659.46;1728686;81;20522;-59
2022/06/15 11:08:07;;;;;;;;;;;;;;;25.26;38.86;100656.16;1740521;81;20252;-57
2022/06/15 11:11:26;;;;;;;;;;;;;;;25.43;38.98;100645.16;1756292;81;20283;-57
2022/06/15 11:14:40;;;;;;;;;;;;;;;25.75;38.86;100652.16;1735218;79;20595;-58
2022/06/15 11:18:07;;;;;;;;;;;;;;;25.73;38.52;100655.23;1769358;79;20215;-58
2022/06/15 11:21:20;;;;;;;;;;;;;;;25.65;38.37;100646.45;1748170;82;20209;-56
2022/06/15 11:24:31;;;;;;;;;;;;;;;25.64;38.26;100648.98;1748289;82;20210;-58
2022/06/15 11:27:44;;;;;;;;;;;;;;;25.40;38.02;100660.25;1737631;82;20485;-58
2022/06/15 11:31:05;;;;;;;;;;;;;;;25.14;38.00;100647.05;1749510;81;20213;-56
2022/06/15 11:34:13;;;;;;;;;;;;;;;24.94;37.88;100651.33;1764653;79;20192;-57
2022/06/15 11:37:24;;;;;;;;;;;;;;;24.81;37.87;100644.77;1782703;79;20552;-57
2022/06/15 11:41:03;;;;;;;;;;;;;;;24.88;37.85;100640.33;1762486;79;20638;-59
2022/06/15 11:44:09;;;;;;;;;;;;;;;24.91;37.75;100653.26;1748853;82;20248;-57
2022/06/15 11:47:29;;;;;;;;;;;;;;;24.82;37.56;100638.58;1737268;82;20214;-56
2022/06/15 11:50:46;;;;;;;;;;;;;;;24.77;37.49;100632.92;1776367;79;20550;-58
2022/06/15 11:54:27;;;;;;;;;;;;;;;24.88;37.41;100639.78;1754253;80;20572;-58
2022/06/15 11:57:39;;;;;;;;;;;;;;;25.17;37.45;100639.52;1752703;82;20216;-58
2022/06/15 12:01:11;;;;;;;;;;;;;;;25.30;37.22;100641.34;1782621;79;20212;-58
2022/06/15 12:04:26;;;;;;;;;;;;;;;25.19;37.07;100631.70;1774048;79;20644;-58
2022/06/15 12:07:46;;;;;;;;;;;;;;;24.94;36.90;100641.52;1739725;81;20577;-58
2022/06/15 12:12:37;;;;;;;;;;;;;;;24.78;36.92;100632.66;1738340;81;20498;-58
2022/06/15 12:14:26;;;;;;;;;;;;;;;24.84;36.92;100619.02;1742274;82;20218;-59
2022/06/15 12:17:35;;;;;;;;;;;;;;;24.99;36.84;100637.92;1796157;78;20206;-56
2022/06/15 12:20:52;;;;;;;;;;;;;;;25.10;36.68;100625.75;1793241;78;20234;-58
2022/06/15 12:24:04;;;;;;;;;;;;;;;25.18;36.52;100623.84;1820959;77;20503;-58
2022/06/15 12:27:45;;;;;;;;;;;;;;;25.31;36.47;100624.80;1810983;78;20201;-57
2022/06/15 12:31:14;;;;;;;;;;;;;;;25.33;36.40;100620.34;1818984;78;20204;-58
2022/06/15 12:34:29;;;;;;;;;;;;;;;25.39;36.32;100620.15;1791611;77;20237;-56
2022/06/15 12:37:49;;;;;;;;;;;;;;;25.47;36.21;100616.00;1819883;77;20343;-56
2022/06/15 12:41:04;;;;;;;;;;;;;;;25.52;36.11;100614.09;1812922;78;20236;-57
2022/06/15 12:44:12;;;;;;;;;;;;;;;25.58;35.92;100618.62;1726333;82;20479;-57
2022/06/15 12:47:20;;;;;;;;;;;;;;;25.65;35.79;100612.80;1804235;77;20574;-56
2022/06/15 12:50:44;;;;;;;;;;;;;;;25.72;35.70;100610.63;1810517;78;20297;-56
2022/06/15 12:54:00;;;;;;;;;;;;;;;25.81;35.57;100613.20;1809726;78;20271;-55
2022/06/15 12:57:19;;;;;;;;;;;;;;;25.93;35.59;100613.83;1798598;77;20186;-56
2022/06/15 13:00:31;;;;;;;;;;;;;;;25.99;35.43;100615.58;1833322;77;20257;-56
2022/06/15 13:03:48;;;;;;;;;;;;;;;25.97;35.21;100606.58;1848237;78;20257;-58
2022/06/15 13:06:54;;;;;;;;;;;;;;;26.02;35.12;100616.47;1778471;80;20563;-57
2022/06/15 13:10:18;;;;;;;;;;;;;;;25.98;34.99;100625.09;1804622;77;20573;-56
2022/06/15 13:13:33;;;;;;;;;;;;;;;25.76;34.88;100628.59;1811931;77;20194;-55
2022/06/15 13:16:41;;;;;;;;;;;;;;;25.47;34.88;100626.67;1811583;77;20664;-56
2022/06/15 13:20:01;;;;;;;;;;;;;;;25.37;35.04;100638.36;1808454;79;20220;-55
2022/06/15 13:23:08;;;;;;;;;;;;;;;25.37;35.02;100617.34;1809315;79;20251;-55
2022/06/15 13:26:26;;;;;;;;;;;;;;;25.47;35.00;100617.41;1809876;79;20193;-55
2022/06/15 13:29:37;;;;;;;;;;;;;;;25.46;34.87;100612.92;1814939;77;20261;-55
2022/06/15 13:33:08;;;;;;;;;;;;;;;25.34;34.83;100617.30;1803316;77;20566;-56
2022/06/15 13:36:23;;;;;;;;;;;;;;;25.18;34.84;100616.83;1770552;80;20551;-53
2022/06/15 13:39:33;;;;;;;;;;;;;;;25.08;34.85;100610.56;1795841;78;20202;-55
2022/06/15 13:42:45;;;;;;;;;;;;;;;25.15;34.89;100610.35;1831782;77;20594;-54
2022/06/15 13:45:53;;;;;;;;;;;;;;;25.29;34.85;100616.39;1845957;78;20559;-56
2022/06/15 13:48:59;;;;;;;;;;;;;;;25.37;34.79;100615.94;1845822;77;20566;-56
2022/06/15 13:52:11;;;;;;;;;;;;;;;25.45;34.79;100610.66;1854561;77;20253;-56
2022/06/15 13:55:45;;;;;;;;;;;;;;;25.44;34.65;100606.18;1830808;78;20207;-55
2022/06/15 13:59:13;;;;;;;;;;;;;;;25.49;34.61;100596.96;1778904;80;20207;-55
2022/06/15 14:02:38;;;;;;;;;;;;;;;25.59;34.41;100597.05;1777540;80;20207;-52
2022/06/15 14:05:54;;;;;;;;;;;;;;;25.54;34.41;100595.06;1777962;80;20211;-51
2022/06/15 14:09:24;;;;;;;;;;;;;;;25.53;34.44;100586.91;1785593;78;20256;-52
2022/06/15 14:12:48;;;;;;;;;;;;;;;25.63;34.42;100580.81;1777983;80;20207;-54
2022/06/15 14:16:01;;;;;;;;;;;;;;;25.63;34.31;100591.17;1777005;81;20207;-53
2022/06/15 14:19:10;;;;;;;;;;;;;;;25.42;34.27;100596.36;1776246;79;20259;-54
2022/06/15 14:22:25;;;;;;;;;;;;;;;25.31;34.28;100598.75;1786451;77;20575;-54
2022/06/15 14:25:28;;;;;;;;;;;;;;;25.23;34.37;100602.87;1777281;81;20251;-54
2022/06/15 14:28:34;;;;;;;;;;;;;;;25.18;34.40;100597.79;1762965;80;20452;-54
2022/06/15 14:31:41;;;;;;;;;;;;;;;25.19;34.37;100602.27;1808536;77;20222;-54
2022/06/15 14:34:48;;;;;;;;;;;;;;;25.08;34.36;100596.56;1798729;78;20204;-55
2022/06/15 14:38:00;;;;;;;;;;;;;;;25.07;34.39;100604.41;1809528;79;20834;-54
2022/06/15 14:41:28;;;;;;;;;;;;;;;25.05;34.37;100599.07;1818987;77;20607;-55
2022/06/15 14:44:34;;;;;;;;;;;;;;;25.03;34.41;100599.87;1810090;77;20209;-54
2022/06/15 14:47:37;;;;;;;;;;;;;;;24.93;34.34;100602.57;1825897;77;20230;-54
2022/06/15 14:50:47;;;;;;;;;;;;;;;24.84;34.39;100606.42;1785971;80;20551;-54
2022/06/15 14:54:09;;;;;;;;;;;;;;;24.89;34.45;100600.84;1785792;80;20215;-54
2022/06/15 14:57:13;;;;;;;;;;;;;;;24.98;34.41;100595.08;1783924;77;20277;-55
2022/06/15 15:00:35;;;;;;;;;;;;;;;25.08;34.40;100596.28;1787270;79;20205;-55
2022/06/15 15:03:41;;;;;;;;;;;;;;;25.11;34.32;100602.75;1792328;80;20676;-54
2022/06/15 15:10:43;;;;;;;;;;;;;;;25.31;34.33;100598.75;1797665;79;20531;-54
2022/06/15 15:14:06;;;;;;;;;;;;;;;25.34;34.24;100606.66;1805661;79;20233;-56
2022/06/15 15:17:13;;;;;;;;;;;;;;;25.28;34.20;100617.48;1743753;82;20213;-55
2022/06/15 15:20:38;;;;;;;;;;;;;;;25.25;34.14;100608.20;1802035;79;20241;-56
2022/06/15 15:23:49;;;;;;;;;;;;;;;25.30;34.17;100618.92;1744755;81;20202;-56
2022/06/15 15:27:10;;;;;;;;;;;;;;;25.35;33.97;100618.15;1774523;80;20406;-55
2022/06/15 15:40:32;;;;;;;;;;;;;;;24.53;34.07;100615.52;1776001;81;20282;-53
2022/06/15 15:43:36;;;;;;;;;;;;;;;24.44;34.09;100619.05;1767004;81;20200;-57
2022/06/15 15:46:42;;;;;;;;;;;;;;;24.56;34.11;100625.38;1775321;80;20518;-55
2022/06/15 15:49:46;;;;;;;;;;;;;;;24.72;34.06;100614.69;1804424;79;20201;-55
2022/06/15 15:52:52;;;;;;;;;;;;;;;24.73;34.02;100618.62;1742036;82;20226;-55
2022/06/15 15:55:57;;;;;;;;;;;;;;;24.70;34.03;100621.09;1806018;79;20241;-55
2022/06/15 15:59:03;;;;;;;;;;;;;;;24.78;33.96;100620.05;1808915;78;20213;-55
2022/06/15 16:02:07;;;;;;;;;;;;;;;24.75;33.99;100623.37;1795386;78;20209;-55
2022/06/15 16:05:17;;;;;;;;;;;;;;;24.67;33.91;100626.64;1790671;79;20217;-53
2022/06/15 16:08:24;;;;;;;;;;;;;;;24.49;33.87;100621.37;1813687;79;20260;-55
2022/06/15 16:11:28;;;;;;;;;;;;;;;24.33;33.90;100625.62;1815383;79;20229;-55
2022/06/15 16:14:32;;;;;;;;;;;;;;;24.33;33.95;100628.41;1804376;78;20197;-55
2022/06/15 16:17:38;;;;;;;;;;;;;;;24.60;33.89;100626.53;1804679;79;20209;-56
2022/06/15 16:20:44;;;;;;;;;;;;;;;25.50;33.46;100623.91;1797332;79;20197;-56
2022/06/15 16:23:53;;;;;;;;;;;;;;;26.83;32.87;100626.97;1755514;79;20244;-55
2022/06/15 16:26:58;;;;;;;;;;;;;;;28.18;32.18;100623.41;1804566;78;20212;-55
2022/06/15 16:30:04;;;;;;;;;;;;;;;29.23;31.57;100617.89;1784426;79;20206;-56
2022/06/15 16:33:11;;;;;;;;;;;;;;;29.81;30.99;100621.69;1772454;80;20277;-55
2022/06/15 16:36:17;;;;;;;;;;;;;;;29.15;30.83;100611.45;1775058;80;20603;-55
2022/06/15 16:39:22;;;;;;;;;;;;;;;28.14;31.07;100631.30;1789471;79;20508;-54
2022/06/15 16:42:29;;;;;;;;;;;;;;;27.21;31.40;100620.87;1798078;78;20285;-54
2022/06/15 16:45:37;;;;;;;;;;;;;;;26.53;31.69;100624.02;1766499;78;20197;-54
2022/06/15 16:48:42;;;;;;;;;;;;;;;25.97;31.85;100627.63;1789051;78;20242;-54